Troy, OH

4:44 AM EDT en Octubre 25, 2014 (GMT -0400)
Rural | Change Station
CLOSE
Current Station
Estación meteorológica personal
Location: Troy, OH
Altura: 854 ft
Estaciones meteorológicas cercanas

Alt 854 ft 40.01 °N, 84.21 °W | Updated 16 seconds ago

Muy nublado
Muy nublado
48.8 ° F
Sensación térmica 49 ° F
N
0.0
Viento Variable Viento desde OSO
Gusts 4.0 mph

Hoy
Alta -- | Baja -- ° F
--% Posibilidad de precipitaciones
Ayer
Alta -- | Baja -- ° F
Precip. -- pul
7:58 AM 6:43 PM
Luna nueva, 2% visible
Presión 30.00 pul
Visibilidad 10.0 Millas
Nubes Muy nublado 3500 ft
Nublado 9500 ft
Vientos helados 49 ° F
Punto de rocío 47 ° F
Humedad 92%
Precipitaciones 0.00 pul
Espesor de la nieve No disponible.
UV 0.0 de una escala de 12
Polen 1.20 de una escala de 12
Ozono Buena
PM2.5 Moderada
Flu Activity Sporadic
METAR KDAY 250756Z 22008KT 10SM BKN035 OVC095 11/08 A3000 RMK AO2 SLP157 T01110078

More Conditions Fewer Conditions

Presión 30.00 pul
Visibilidad 10.0 Millas
Nubes Muy nublado 3500 ft
Nublado 9500 ft
Vientos helados 49 ° F
Punto de rocío 47 ° F
Humedad 92%
Precipitaciones 0.00 pul
Espesor de la nieve No disponible.
UV 0.0 de una escala de 12
Polen 1.20 de una escala de 12
Ozono Buena
PM2.5 Moderada
Flu Activity Sporadic
METAR KDAY 250756Z 22008KT 10SM BKN035 OVC095 11/08 A3000 RMK AO2 SLP157 T01110078

More Conditions Fewer Conditions

10-Day Weather Forecast

Almanac

Astronomía

Oct. 25, 2014 Salida Puesta
Hora real 7:58 AM EDT 6:43 PM EDT
Crepúsculo civil 7:30 AM EDT 7:10 PM EDT
Crepúsculo náutico 6:58 AM EDT 7:42 PM EDT
Crepúsculo astronómico 6:27 AM EDT 8:13 PM EDT
Luna 9:36 AM EDT 8:05 PM EDT
Horas de luz 11h 40m
Horas de luz
10h 44m
Tomorrow will be 2m 25s shorter.
Luna nueva, 2% of the Moon is Illuminated
Hoy
Luna nueva
Oct 30
Cuarto creciente
Nov 6
Luna llena
Nov 14
Cuarto menguante
Nov 22
Nueva

Extremos de hoy

Máximos del estado Bajos del estado

Community

WunderPhotos

Upload Photos

1,764,791 ¡fotos cargadas!

Nearby

Calidad del aire

  Calidad del aire Índice AQ Contaminante
Ayer Buena
PM2.5
Ayer Buena
OZONE
Real Moderada
PM2.5
Real Buena
OZONE
Sábado Moderada
PM2.5
Sábado Buena
OZONE
Domingo Moderada
PM2.5
Domingo Buena
OZONE
Lunes Moderada
PM2.5
Lunes Buena
OZONE
Martes Buena
PM2.5
Martes Buena
OZONE

Grosos de nieve

Estación Profundido Altura
No tenemos constancia de nieve nueva.

Actividad de terremotos

Ciudad Distance Mag. Tiempo y dato
No hay informes recientes de la actividad sísmica.
Magnitud mínima muestra es 2,5.

Temperaturas de aguas costeras

Lugar Temperatura
Sin partes meteorológicos de las estaciones

Estaciones meteorológicas cercanas